sensor_id;sensor_type;location;lat;lon;timestamp;P1;durP1;ratioP1;P2;durP2;ratioP2
11189;SDS011;5651;50.926;4.718;2023-03-20T00:00:51;21.38;;;12.27;;
11189;SDS011;5651;50.926;4.718;2023-03-20T00:03:17;22.55;;;12.93;;
11189;SDS011;5651;50.926;4.718;2023-03-20T00:05:43;17.80;;;10.63;;
11189;SDS011;5651;50.926;4.718;2023-03-20T00:08:09;24.08;;;11.10;;
11189;SDS011;5651;50.926;4.718;2023-03-20T00:10:36;17.90;;;10.15;;
11189;SDS011;5651;50.926;4.718;2023-03-20T00:13:05;20.90;;;10.02;;
11189;SDS011;5651;50.926;4.718;2023-03-20T00:15:36;20.70;;;10.63;;
11189;SDS011;5651;50.926;4.718;2023-03-20T00:18:17;21.00;;;10.77;;
11189;SDS011;5651;50.926;4.718;2023-03-20T00:20:45;22.13;;;10.18;;
11189;SDS011;5651;50.926;4.718;2023-03-20T00:23:11;19.75;;;9.35;;
11189;SDS011;5651;50.926;4.718;2023-03-20T00:25:38;16.50;;;9.48;;
11189;SDS011;5651;50.926;4.718;2023-03-20T00:31:12;16.63;;;10.00;;
11189;SDS011;5651;50.926;4.718;2023-03-20T00:33:45;24.85;;;10.73;;
11189;SDS011;5651;50.926;4.718;2023-03-20T00:36:11;26.45;;;11.02;;
11189;SDS011;5651;50.926;4.718;2023-03-20T00:38:36;18.55;;;10.48;;
11189;SDS011;5651;50.926;4.718;2023-03-20T00:41:02;20.75;;;12.00;;
11189;SDS011;5651;50.926;4.718;2023-03-20T00:43:47;19.90;;;11.23;;
11189;SDS011;5651;50.926;4.718;2023-03-20T00:46:15;21.15;;;10.27;;
11189;SDS011;5651;50.926;4.718;2023-03-20T00:48:41;21.80;;;10.63;;
11189;SDS011;5651;50.926;4.718;2023-03-20T00:51:07;19.15;;;10.90;;
11189;SDS011;5651;50.926;4.718;2023-03-20T00:53:33;16.58;;;9.73;;
11189;SDS011;5651;50.926;4.718;2023-03-20T00:55:59;18.92;;;10.90;;
11189;SDS011;5651;50.926;4.718;2023-03-20T00:58:26;17.50;;;9.38;;
11189;SDS011;5651;50.926;4.718;2023-03-20T01:00:51;20.45;;;11.88;;
11189;SDS011;5651;50.926;4.718;2023-03-20T01:03:18;23.98;;;11.70;;
11189;SDS011;5651;50.926;4.718;2023-03-20T01:08:21;23.65;;;11.10;;
11189;SDS011;5651;50.926;4.718;2023-03-20T01:10:49;18.17;;;9.93;;
11189;SDS011;5651;50.926;4.718;2023-03-20T01:13:21;19.65;;;11.48;;
11189;SDS011;5651;50.926;4.718;2023-03-20T01:15:49;20.60;;;12.07;;
11189;SDS011;5651;50.926;4.718;2023-03-20T01:18:17;20.15;;;11.35;;
11189;SDS011;5651;50.926;4.718;2023-03-20T01:20:44;24.65;;;13.25;;
11189;SDS011;5651;50.926;4.718;2023-03-20T01:23:11;21.85;;;12.15;;
11189;SDS011;5651;50.926;4.718;2023-03-20T01:25:37;24.67;;;13.00;;
11189;SDS011;5651;50.926;4.718;2023-03-20T01:28:10;24.67;;;12.35;;
11189;SDS011;5651;50.926;4.718;2023-03-20T01:30:43;22.65;;;11.95;;
11189;SDS011;5651;50.926;4.718;2023-03-20T01:33:27;21.95;;;12.18;;
11189;SDS011;5651;50.926;4.718;2023-03-20T01:35:53;23.60;;;12.70;;
11189;SDS011;5651;50.926;4.718;2023-03-20T01:38:21;24.77;;;12.45;;
11189;SDS011;5651;50.926;4.718;2023-03-20T01:43:27;18.67;;;10.55;;
11189;SDS011;5651;50.926;4.718;2023-03-20T01:45:56;21.40;;;10.38;;
11189;SDS011;5651;50.926;4.718;2023-03-20T01:48:53;23.42;;;10.70;;
11189;SDS011;5651;50.926;4.718;2023-03-20T01:51:22;20.70;;;10.43;;
11189;SDS011;5651;50.926;4.718;2023-03-20T01:53:58;19.02;;;11.50;;
11189;SDS011;5651;50.926;4.718;2023-03-20T01:56:24;19.38;;;10.75;;
11189;SDS011;5651;50.926;4.718;2023-03-20T01:58:55;19.55;;;10.98;;
11189;SDS011;5651;50.926;4.718;2023-03-20T02:01:26;18.85;;;10.95;;
11189;SDS011;5651;50.926;4.718;2023-03-20T02:03:53;23.27;;;10.20;;
11189;SDS011;5651;50.926;4.718;2023-03-20T02:06:20;18.25;;;10.45;;
11189;SDS011;5651;50.926;4.718;2023-03-20T02:08:48;20.60;;;10.27;;
11189;SDS011;5651;50.926;4.718;2023-03-20T02:11:17;17.92;;;9.65;;
11189;SDS011;5651;50.926;4.718;2023-03-20T02:13:46;18.02;;;10.32;;
11189;SDS011;5651;50.926;4.718;2023-03-20T02:16:14;19.00;;;9.43;;
11189;SDS011;5651;50.926;4.718;2023-03-20T02:18:42;22.15;;;11.02;;
11189;SDS011;5651;50.926;4.718;2023-03-20T02:21:31;21.08;;;11.20;;
11189;SDS011;5651;50.926;4.718;2023-03-20T02:49:09;25.38;;;12.90;;
11189;SDS011;5651;50.926;4.718;2023-03-20T02:54:39;26.83;;;12.48;;
11189;SDS011;5651;50.926;4.718;2023-03-20T02:57:41;30.08;;;13.73;;
11189;SDS011;5651;50.926;4.718;2023-03-20T03:00:13;25.35;;;12.60;;
11189;SDS011;5651;50.926;4.718;2023-03-20T03:02:57;26.98;;;12.93;;
11189;SDS011;5651;50.926;4.718;2023-03-20T03:08:10;24.52;;;12.80;;
11189;SDS011;5651;50.926;4.718;2023-03-20T03:10:40;23.45;;;12.73;;
11189;SDS011;5651;50.926;4.718;2023-03-20T03:13:14;29.20;;;12.02;;
11189;SDS011;5651;50.926;4.718;2023-03-20T03:15:45;27.65;;;13.52;;
11189;SDS011;5651;50.926;4.718;2023-03-20T03:18:17;28.00;;;14.30;;
11189;SDS011;5651;50.926;4.718;2023-03-20T03:20:46;25.80;;;13.30;;
11189;SDS011;5651;50.926;4.718;2023-03-20T03:23:20;26.20;;;13.05;;
11189;SDS011;5651;50.926;4.718;2023-03-20T03:25:54;27.92;;;14.02;;
11189;SDS011;5651;50.926;4.718;2023-03-20T03:28:45;28.52;;;13.95;;
11189;SDS011;5651;50.926;4.718;2023-03-20T03:31:12;25.25;;;12.98;;
11189;SDS011;5651;50.926;4.718;2023-03-20T03:33:41;29.58;;;13.55;;
11189;SDS011;5651;50.926;4.718;2023-03-20T03:38:49;25.77;;;11.80;;
11189;SDS011;5651;50.926;4.718;2023-03-20T03:41:34;28.00;;;14.40;;
11189;SDS011;5651;50.926;4.718;2023-03-20T03:46:35;26.65;;;12.73;;
11189;SDS011;5651;50.926;4.718;2023-03-20T03:49:21;32.58;;;13.75;;
11189;SDS011;5651;50.926;4.718;2023-03-20T03:51:52;26.45;;;13.02;;
11189;SDS011;5651;50.926;4.718;2023-03-20T03:54:25;29.67;;;14.77;;
11189;SDS011;5651;50.926;4.718;2023-03-20T03:56:56;34.25;;;14.73;;
11189;SDS011;5651;50.926;4.718;2023-03-20T03:59:42;30.77;;;15.13;;
11189;SDS011;5651;50.926;4.718;2023-03-20T04:02:12;32.17;;;14.60;;
11189;SDS011;5651;50.926;4.718;2023-03-20T04:04:41;30.17;;;14.35;;
11189;SDS011;5651;50.926;4.718;2023-03-20T04:07:12;26.40;;;12.80;;
11189;SDS011;5651;50.926;4.718;2023-03-20T04:09:38;35.47;;;16.20;;
11189;SDS011;5651;50.926;4.718;2023-03-20T04:12:04;31.20;;;13.75;;
11189;SDS011;5651;50.926;4.718;2023-03-20T04:14:31;35.00;;;16.80;;
11189;SDS011;5651;50.926;4.718;2023-03-20T04:16:57;30.17;;;14.25;;
11189;SDS011;5651;50.926;4.718;2023-03-20T04:19:23;28.77;;;14.20;;
11189;SDS011;5651;50.926;4.718;2023-03-20T04:21:48;31.30;;;14.98;;
11189;SDS011;5651;50.926;4.718;2023-03-20T04:24:14;37.92;;;15.25;;
11189;SDS011;5651;50.926;4.718;2023-03-20T04:26:40;35.45;;;16.20;;
11189;SDS011;5651;50.926;4.718;2023-03-20T04:29:06;34.38;;;17.00;;
11189;SDS011;5651;50.926;4.718;2023-03-20T04:31:33;37.55;;;16.10;;
11189;SDS011;5651;50.926;4.718;2023-03-20T04:33:58;29.55;;;14.93;;
11189;SDS011;5651;50.926;4.718;2023-03-20T04:36:24;29.63;;;15.32;;
11189;SDS011;5651;50.926;4.718;2023-03-20T04:38:50;36.42;;;17.02;;
11189;SDS011;5651;50.926;4.718;2023-03-20T04:41:16;36.72;;;16.02;;
11189;SDS011;5651;50.926;4.718;2023-03-20T04:43:45;30.77;;;14.82;;
11189;SDS011;5651;50.926;4.718;2023-03-20T04:46:11;40.25;;;16.80;;
11189;SDS011;5651;50.926;4.718;2023-03-20T04:48:36;31.52;;;15.10;;
11189;SDS011;5651;50.926;4.718;2023-03-20T04:51:02;34.72;;;15.55;;
11189;SDS011;5651;50.926;4.718;2023-03-20T04:53:28;33.50;;;14.73;;
11189;SDS011;5651;50.926;4.718;2023-03-20T04:55:54;30.27;;;15.35;;
11189;SDS011;5651;50.926;4.718;2023-03-20T04:58:20;30.70;;;13.80;;
11189;SDS011;5651;50.926;4.718;2023-03-20T05:00:46;30.85;;;13.68;;
11189;SDS011;5651;50.926;4.718;2023-03-20T05:03:12;34.40;;;15.35;;
11189;SDS011;5651;50.926;4.718;2023-03-20T05:05:38;32.05;;;14.70;;
11189;SDS011;5651;50.926;4.718;2023-03-20T05:08:04;33.85;;;14.00;;
11189;SDS011;5651;50.926;4.718;2023-03-20T05:10:30;27.42;;;13.75;;
11189;SDS011;5651;50.926;4.718;2023-03-20T05:12:56;31.23;;;13.13;;
11189;SDS011;5651;50.926;4.718;2023-03-20T05:15:22;27.25;;;13.30;;
11189;SDS011;5651;50.926;4.718;2023-03-20T05:17:48;29.23;;;13.80;;
11189;SDS011;5651;50.926;4.718;2023-03-20T05:20:14;34.53;;;15.48;;
11189;SDS011;5651;50.926;4.718;2023-03-20T05:22:40;31.60;;;14.32;;
11189;SDS011;5651;50.926;4.718;2023-03-20T05:25:06;28.08;;;13.85;;
11189;SDS011;5651;50.926;4.718;2023-03-20T05:27:32;29.92;;;13.20;;
11189;SDS011;5651;50.926;4.718;2023-03-20T05:29:58;31.83;;;13.00;;
11189;SDS011;5651;50.926;4.718;2023-03-20T05:32:24;30.23;;;13.50;;
11189;SDS011;5651;50.926;4.718;2023-03-20T05:34:49;34.70;;;12.80;;
11189;SDS011;5651;50.926;4.718;2023-03-20T05:37:15;34.97;;;13.45;;
11189;SDS011;5651;50.926;4.718;2023-03-20T05:39:41;25.35;;;12.30;;
11189;SDS011;5651;50.926;4.718;2023-03-20T05:42:07;38.33;;;14.15;;
11189;SDS011;5651;50.926;4.718;2023-03-20T05:44:33;29.35;;;13.93;;
11189;SDS011;5651;50.926;4.718;2023-03-20T05:46:59;31.95;;;14.40;;
11189;SDS011;5651;50.926;4.718;2023-03-20T05:49:24;28.77;;;12.82;;
11189;SDS011;5651;50.926;4.718;2023-03-20T05:51:51;35.60;;;14.27;;
11189;SDS011;5651;50.926;4.718;2023-03-20T05:54:16;28.33;;;12.68;;
11189;SDS011;5651;50.926;4.718;2023-03-20T05:56:42;28.13;;;11.02;;
11189;SDS011;5651;50.926;4.718;2023-03-20T05:59:08;31.88;;;12.65;;
11189;SDS011;5651;50.926;4.718;2023-03-20T06:01:35;27.10;;;11.98;;
11189;SDS011;5651;50.926;4.718;2023-03-20T06:04:00;26.77;;;11.25;;
11189;SDS011;5651;50.926;4.718;2023-03-20T06:06:27;32.90;;;12.38;;
11189;SDS011;5651;50.926;4.718;2023-03-20T06:08:53;23.30;;;10.88;;
11189;SDS011;5651;50.926;4.718;2023-03-20T06:11:19;23.42;;;11.48;;
11189;SDS011;5651;50.926;4.718;2023-03-20T06:13:45;27.85;;;12.32;;
11189;SDS011;5651;50.926;4.718;2023-03-20T06:16:11;25.10;;;11.23;;
11189;SDS011;5651;50.926;4.718;2023-03-20T06:18:37;26.92;;;11.57;;
11189;SDS011;5651;50.926;4.718;2023-03-20T06:21:03;25.10;;;10.38;;
11189;SDS011;5651;50.926;4.718;2023-03-20T06:23:30;20.98;;;10.48;;
11189;SDS011;5651;50.926;4.718;2023-03-20T06:25:56;31.75;;;12.65;;
11189;SDS011;5651;50.926;4.718;2023-03-20T06:28:21;31.85;;;12.00;;
11189;SDS011;5651;50.926;4.718;2023-03-20T06:30:49;26.58;;;11.45;;
11189;SDS011;5651;50.926;4.718;2023-03-20T06:33:17;28.52;;;11.50;;
11189;SDS011;5651;50.926;4.718;2023-03-20T06:35:44;29.33;;;11.13;;
11189;SDS011;5651;50.926;4.718;2023-03-20T06:38:10;34.35;;;12.32;;
11189;SDS011;5651;50.926;4.718;2023-03-20T06:40:36;33.38;;;12.25;;
11189;SDS011;5651;50.926;4.718;2023-03-20T06:43:02;25.70;;;10.32;;
11189;SDS011;5651;50.926;4.718;2023-03-20T06:45:29;28.55;;;10.93;;
11189;SDS011;5651;50.926;4.718;2023-03-20T06:47:55;30.33;;;9.75;;
11189;SDS011;5651;50.926;4.718;2023-03-20T06:50:21;24.58;;;10.23;;
11189;SDS011;5651;50.926;4.718;2023-03-20T06:52:47;28.67;;;10.65;;
11189;SDS011;5651;50.926;4.718;2023-03-20T06:55:13;26.15;;;11.68;;
11189;SDS011;5651;50.926;4.718;2023-03-20T06:57:39;20.25;;;10.43;;
11189;SDS011;5651;50.926;4.718;2023-03-20T07:00:05;24.85;;;10.57;;
11189;SDS011;5651;50.926;4.718;2023-03-20T07:02:32;27.77;;;10.55;;
11189;SDS011;5651;50.926;4.718;2023-03-20T07:04:58;23.02;;;10.48;;
11189;SDS011;5651;50.926;4.718;2023-03-20T07:07:23;20.45;;;10.10;;
11189;SDS011;5651;50.926;4.718;2023-03-20T07:09:50;26.85;;;9.45;;
11189;SDS011;5651;50.926;4.718;2023-03-20T07:12:16;24.10;;;8.77;;
11189;SDS011;5651;50.926;4.718;2023-03-20T07:14:44;20.63;;;7.88;;
11189;SDS011;5651;50.926;4.718;2023-03-20T07:17:11;20.95;;;8.27;;
11189;SDS011;5651;50.926;4.718;2023-03-20T07:19:37;20.02;;;8.60;;
11189;SDS011;5651;50.926;4.718;2023-03-20T07:22:04;23.95;;;9.35;;
11189;SDS011;5651;50.926;4.718;2023-03-20T07:24:33;21.98;;;8.20;;
11189;SDS011;5651;50.926;4.718;2023-03-20T07:26:59;23.90;;;9.10;;
11189;SDS011;5651;50.926;4.718;2023-03-20T07:29:25;19.10;;;7.60;;
11189;SDS011;5651;50.926;4.718;2023-03-20T07:31:51;27.88;;;9.63;;
11189;SDS011;5651;50.926;4.718;2023-03-20T07:34:17;19.70;;;10.52;;
11189;SDS011;5651;50.926;4.718;2023-03-20T07:36:43;21.13;;;9.65;;
11189;SDS011;5651;50.926;4.718;2023-03-20T07:39:09;26.52;;;8.93;;
11189;SDS011;5651;50.926;4.718;2023-03-20T07:41:36;35.83;;;8.82;;
11189;SDS011;5651;50.926;4.718;2023-03-20T07:44:02;18.98;;;9.18;;
11189;SDS011;5651;50.926;4.718;2023-03-20T07:46:27;21.42;;;9.55;;
11189;SDS011;5651;50.926;4.718;2023-03-20T07:48:53;23.08;;;9.77;;
11189;SDS011;5651;50.926;4.718;2023-03-20T07:51:21;21.23;;;8.90;;
11189;SDS011;5651;50.926;4.718;2023-03-20T07:53:46;24.77;;;9.20;;
11189;SDS011;5651;50.926;4.718;2023-03-20T07:56:12;17.95;;;8.45;;
11189;SDS011;5651;50.926;4.718;2023-03-20T07:58:38;17.30;;;8.88;;
11189;SDS011;5651;50.926;4.718;2023-03-20T08:01:03;18.67;;;8.43;;
11189;SDS011;5651;50.926;4.718;2023-03-20T08:03:29;21.00;;;7.85;;
11189;SDS011;5651;50.926;4.718;2023-03-20T08:05:56;21.63;;;7.95;;
11189;SDS011;5651;50.926;4.718;2023-03-20T08:08:22;19.63;;;7.43;;
11189;SDS011;5651;50.926;4.718;2023-03-20T08:10:47;19.38;;;7.43;;
11189;SDS011;5651;50.926;4.718;2023-03-20T08:13:14;18.42;;;7.40;;
11189;SDS011;5651;50.926;4.718;2023-03-20T08:15:40;17.30;;;6.30;;
11189;SDS011;5651;50.926;4.718;2023-03-20T08:18:06;21.88;;;6.85;;
11189;SDS011;5651;50.926;4.718;2023-03-20T08:20:32;18.77;;;6.65;;
11189;SDS011;5651;50.926;4.718;2023-03-20T08:22:57;21.27;;;6.45;;
11189;SDS011;5651;50.926;4.718;2023-03-20T08:25:23;16.13;;;5.10;;
11189;SDS011;5651;50.926;4.718;2023-03-20T08:27:49;17.38;;;5.95;;
11189;SDS011;5651;50.926;4.718;2023-03-20T08:30:15;18.70;;;5.70;;
11189;SDS011;5651;50.926;4.718;2023-03-20T08:32:41;13.85;;;4.85;;
11189;SDS011;5651;50.926;4.718;2023-03-20T08:35:07;15.73;;;5.75;;
11189;SDS011;5651;50.926;4.718;2023-03-20T08:37:34;16.35;;;5.15;;
11189;SDS011;5651;50.926;4.718;2023-03-20T08:40:01;18.80;;;6.18;;
11189;SDS011;5651;50.926;4.718;2023-03-20T08:42:28;18.75;;;5.28;;
11189;SDS011;5651;50.926;4.718;2023-03-20T08:44:54;19.00;;;6.13;;
11189;SDS011;5651;50.926;4.718;2023-03-20T08:47:20;17.02;;;6.43;;
11189;SDS011;5651;50.926;4.718;2023-03-20T08:49:46;13.57;;;5.50;;
11189;SDS011;5651;50.926;4.718;2023-03-20T08:52:12;17.67;;;6.25;;
11189;SDS011;5651;50.926;4.718;2023-03-20T08:54:38;16.15;;;6.13;;
11189;SDS011;5651;50.926;4.718;2023-03-20T08:57:04;21.15;;;6.50;;
11189;SDS011;5651;50.926;4.718;2023-03-20T08:59:30;16.35;;;5.85;;
11189;SDS011;5651;50.926;4.718;2023-03-20T09:01:57;16.45;;;6.03;;
11189;SDS011;5651;50.926;4.718;2023-03-20T09:04:23;19.75;;;6.93;;
11189;SDS011;5651;50.926;4.718;2023-03-20T09:06:49;18.98;;;7.22;;
11189;SDS011;5651;50.926;4.718;2023-03-20T09:09:16;21.58;;;6.88;;
11189;SDS011;5651;50.926;4.718;2023-03-20T09:11:44;15.05;;;6.13;;
11189;SDS011;5651;50.926;4.718;2023-03-20T09:14:10;16.88;;;6.45;;
11189;SDS011;5651;50.926;4.718;2023-03-20T09:16:36;15.15;;;6.35;;
11189;SDS011;5651;50.926;4.718;2023-03-20T09:19:02;20.60;;;6.88;;
11189;SDS011;5651;50.926;4.718;2023-03-20T09:21:28;16.27;;;6.88;;
11189;SDS011;5651;50.926;4.718;2023-03-20T09:23:54;19.35;;;6.60;;
11189;SDS011;5651;50.926;4.718;2023-03-20T09:26:20;19.27;;;6.20;;
11189;SDS011;5651;50.926;4.718;2023-03-20T09:28:45;19.13;;;6.35;;
11189;SDS011;5651;50.926;4.718;2023-03-20T09:31:11;18.30;;;6.68;;
11189;SDS011;5651;50.926;4.718;2023-03-20T09:33:37;22.95;;;6.63;;
11189;SDS011;5651;50.926;4.718;2023-03-20T09:36:03;15.13;;;6.68;;
11189;SDS011;5651;50.926;4.718;2023-03-20T09:38:29;19.45;;;5.90;;
11189;SDS011;5651;50.926;4.718;2023-03-20T09:40:56;17.05;;;6.53;;
11189;SDS011;5651;50.926;4.718;2023-03-20T09:48:48;17.08;;;5.03;;
11189;SDS011;5651;50.926;4.718;2023-03-20T09:51:37;19.35;;;6.28;;
11189;SDS011;5651;50.926;4.718;2023-03-20T09:56:51;15.75;;;4.85;;
11189;SDS011;5651;50.926;4.718;2023-03-20T09:59:19;14.85;;;5.40;;
11189;SDS011;5651;50.926;4.718;2023-03-20T10:04:17;14.43;;;5.15;;
11189;SDS011;5651;50.926;4.718;2023-03-20T10:06:43;12.00;;;4.75;;
11189;SDS011;5651;50.926;4.718;2023-03-20T10:09:14;15.57;;;5.32;;
11189;SDS011;5651;50.926;4.718;2023-03-20T10:23:40;17.55;;;5.13;;
11189;SDS011;5651;50.926;4.718;2023-03-20T10:26:12;15.13;;;6.03;;
11189;SDS011;5651;50.926;4.718;2023-03-20T10:29:15;16.58;;;6.13;;
11189;SDS011;5651;50.926;4.718;2023-03-20T10:31:46;13.98;;;5.90;;
11189;SDS011;5651;50.926;4.718;2023-03-20T10:34:34;17.10;;;5.93;;
11189;SDS011;5651;50.926;4.718;2023-03-20T10:40:27;19.33;;;6.18;;
11189;SDS011;5651;50.926;4.718;2023-03-20T10:42:58;16.15;;;5.22;;
11189;SDS011;5651;50.926;4.718;2023-03-20T10:47:59;16.08;;;5.15;;
11189;SDS011;5651;50.926;4.718;2023-03-20T10:50:34;13.73;;;4.72;;
11189;SDS011;5651;50.926;4.718;2023-03-20T10:53:05;17.10;;;5.82;;
11189;SDS011;5651;50.926;4.718;2023-03-20T10:55:34;15.18;;;4.90;;
11189;SDS011;5651;50.926;4.718;2023-03-20T10:58:09;16.77;;;5.10;;
11189;SDS011;5651;50.926;4.718;2023-03-20T11:00:37;19.73;;;5.50;;
11189;SDS011;5651;50.926;4.718;2023-03-20T11:03:05;11.95;;;4.55;;
11189;SDS011;5651;50.926;4.718;2023-03-20T11:05:33;14.50;;;4.60;;
11189;SDS011;5651;50.926;4.718;2023-03-20T11:08:08;14.38;;;5.28;;
11189;SDS011;5651;50.926;4.718;2023-03-20T11:10:37;17.77;;;5.55;;
11189;SDS011;5651;50.926;4.718;2023-03-20T11:15:52;12.15;;;5.03;;
11189;SDS011;5651;50.926;4.718;2023-03-20T11:18:19;18.92;;;5.80;;
11189;SDS011;5651;50.926;4.718;2023-03-20T11:20:50;20.08;;;5.43;;
11189;SDS011;5651;50.926;4.718;2023-03-20T11:23:20;15.23;;;4.18;;
11189;SDS011;5651;50.926;4.718;2023-03-20T11:25:52;12.82;;;5.15;;
11189;SDS011;5651;50.926;4.718;2023-03-20T11:31:01;15.35;;;4.97;;
11189;SDS011;5651;50.926;4.718;2023-03-20T11:36:25;10.20;;;4.10;;
11189;SDS011;5651;50.926;4.718;2023-03-20T11:39:00;23.98;;;7.03;;
11189;SDS011;5651;50.926;4.718;2023-03-20T11:41:50;31.60;;;8.23;;
11189;SDS011;5651;50.926;4.718;2023-03-20T11:44:26;12.23;;;4.22;;
11189;SDS011;5651;50.926;4.718;2023-03-20T11:46:54;20.02;;;4.97;;
11189;SDS011;5651;50.926;4.718;2023-03-20T11:49:27;10.20;;;4.38;;
11189;SDS011;5651;50.926;4.718;2023-03-20T11:51:55;12.48;;;3.92;;
11189;SDS011;5651;50.926;4.718;2023-03-20T11:54:25;16.48;;;4.70;;
11189;SDS011;5651;50.926;4.718;2023-03-20T11:56:54;12.98;;;4.03;;
11189;SDS011;5651;50.926;4.718;2023-03-20T11:59:34;11.52;;;4.65;;
11189;SDS011;5651;50.926;4.718;2023-03-20T12:02:02;11.30;;;4.68;;
11189;SDS011;5651;50.926;4.718;2023-03-20T12:04:31;10.20;;;4.50;;
11189;SDS011;5651;50.926;4.718;2023-03-20T12:10:11;18.92;;;5.57;;
11189;SDS011;5651;50.926;4.718;2023-03-20T12:12:40;14.05;;;5.55;;
11189;SDS011;5651;50.926;4.718;2023-03-20T12:17:55;19.55;;;6.60;;
11189;SDS011;5651;50.926;4.718;2023-03-20T12:22:53;13.73;;;5.10;;
11189;SDS011;5651;50.926;4.718;2023-03-20T12:30:30;17.60;;;4.50;;
11189;SDS011;5651;50.926;4.718;2023-03-20T12:36:02;12.77;;;5.03;;
11189;SDS011;5651;50.926;4.718;2023-03-20T12:38:32;8.10;;;3.50;;
11189;SDS011;5651;50.926;4.718;2023-03-20T12:41:06;9.45;;;4.25;;
11189;SDS011;5651;50.926;4.718;2023-03-20T12:44:00;13.90;;;4.60;;
11189;SDS011;5651;50.926;4.718;2023-03-20T12:49:18;12.68;;;5.30;;
11189;SDS011;5651;50.926;4.718;2023-03-20T13:00:19;12.98;;;4.80;;
11189;SDS011;5651;50.926;4.718;2023-03-20T13:03:18;12.15;;;5.93;;
11189;SDS011;5651;50.926;4.718;2023-03-20T13:05:44;15.90;;;4.97;;
11189;SDS011;5651;50.926;4.718;2023-03-20T13:11:43;13.70;;;4.20;;
11189;SDS011;5651;50.926;4.718;2023-03-20T13:19:51;14.23;;;4.70;;
11189;SDS011;5651;50.926;4.718;2023-03-20T13:22:22;13.93;;;4.28;;
11189;SDS011;5651;50.926;4.718;2023-03-20T13:25:09;15.23;;;4.97;;
11189;SDS011;5651;50.926;4.718;2023-03-20T13:27:48;16.17;;;4.53;;
11189;SDS011;5651;50.926;4.718;2023-03-20T13:30:29;11.95;;;4.00;;
11189;SDS011;5651;50.926;4.718;2023-03-20T13:35:58;18.83;;;5.32;;
11189;SDS011;5651;50.926;4.718;2023-03-20T13:38:32;14.15;;;4.40;;
11189;SDS011;5651;50.926;4.718;2023-03-20T13:41:02;14.00;;;4.63;;
11189;SDS011;5651;50.926;4.718;2023-03-20T13:43:35;16.73;;;5.22;;
11189;SDS011;5651;50.926;4.718;2023-03-20T13:46:09;12.93;;;4.78;;
11189;SDS011;5651;50.926;4.718;2023-03-20T13:48:42;13.35;;;5.40;;
11189;SDS011;5651;50.926;4.718;2023-03-20T14:04:49;14.93;;;5.30;;
11189;SDS011;5651;50.926;4.718;2023-03-20T14:07:31;15.65;;;4.80;;
11189;SDS011;5651;50.926;4.718;2023-03-20T14:10:46;15.35;;;4.90;;
11189;SDS011;5651;50.926;4.718;2023-03-20T14:12:47;12.60;;;4.80;;
11189;SDS011;5651;50.926;4.718;2023-03-20T14:15:13;12.30;;;4.60;;
11189;SDS011;5651;50.926;4.718;2023-03-20T14:17:42;13.38;;;5.05;;
11189;SDS011;5651;50.926;4.718;2023-03-20T14:20:22;11.40;;;4.88;;
11189;SDS011;5651;50.926;4.718;2023-03-20T14:22:55;18.60;;;5.68;;
11189;SDS011;5651;50.926;4.718;2023-03-20T14:25:21;16.95;;;5.57;;
11189;SDS011;5651;50.926;4.718;2023-03-20T14:27:53;16.08;;;5.80;;
11189;SDS011;5651;50.926;4.718;2023-03-20T14:33:04;18.20;;;6.35;;
11189;SDS011;5651;50.926;4.718;2023-03-20T14:35:35;18.00;;;6.15;;
11189;SDS011;5651;50.926;4.718;2023-03-20T14:38:06;19.00;;;5.68;;
11189;SDS011;5651;50.926;4.718;2023-03-20T14:40:37;15.50;;;5.97;;
11189;SDS011;5651;50.926;4.718;2023-03-20T14:46:48;16.33;;;6.22;;
11189;SDS011;5651;50.926;4.718;2023-03-20T14:49:24;18.48;;;6.72;;
11189;SDS011;5651;50.926;4.718;2023-03-20T14:51:56;23.90;;;7.78;;
11189;SDS011;5651;50.926;4.718;2023-03-20T14:54:34;25.55;;;9.15;;
11189;SDS011;5651;50.926;4.718;2023-03-20T14:57:07;19.98;;;8.52;;
11189;SDS011;5651;50.926;4.718;2023-03-20T14:59:41;19.60;;;7.60;;
11189;SDS011;5651;50.926;4.718;2023-03-20T15:02:17;27.95;;;11.57;;
11189;SDS011;5651;50.926;4.718;2023-03-20T15:04:49;22.25;;;10.52;;
11189;SDS011;5651;50.926;4.718;2023-03-20T15:07:16;21.10;;;7.70;;
11189;SDS011;5651;50.926;4.718;2023-03-20T15:09:50;16.80;;;7.13;;
11189;SDS011;5651;50.926;4.718;2023-03-20T15:12:19;16.55;;;7.55;;
11189;SDS011;5651;50.926;4.718;2023-03-20T15:14:54;22.40;;;7.40;;
11189;SDS011;5651;50.926;4.718;2023-03-20T15:17:39;15.52;;;7.25;;
11189;SDS011;5651;50.926;4.718;2023-03-20T15:27:53;11.30;;;6.45;;
11189;SDS011;5651;50.926;4.718;2023-03-20T15:30:20;14.60;;;7.60;;
11189;SDS011;5651;50.926;4.718;2023-03-20T15:32:47;16.88;;;8.00;;
11189;SDS011;5651;50.926;4.718;2023-03-20T15:35:21;17.35;;;7.40;;
11189;SDS011;5651;50.926;4.718;2023-03-20T15:37:50;19.85;;;8.60;;
11189;SDS011;5651;50.926;4.718;2023-03-20T15:40:27;20.60;;;7.88;;
11189;SDS011;5651;50.926;4.718;2023-03-20T15:42:59;20.08;;;9.85;;
11189;SDS011;5651;50.926;4.718;2023-03-20T15:45:30;16.02;;;8.57;;
11189;SDS011;5651;50.926;4.718;2023-03-20T15:47:58;19.17;;;8.55;;
11189;SDS011;5651;50.926;4.718;2023-03-20T15:50:37;24.05;;;8.95;;
11189;SDS011;5651;50.926;4.718;2023-03-20T15:53:06;21.08;;;9.23;;
11189;SDS011;5651;50.926;4.718;2023-03-20T15:55:36;22.48;;;9.13;;
11189;SDS011;5651;50.926;4.718;2023-03-20T15:58:02;17.05;;;8.18;;
11189;SDS011;5651;50.926;4.718;2023-03-20T16:00:33;19.15;;;7.88;;
11189;SDS011;5651;50.926;4.718;2023-03-20T16:03:06;17.02;;;8.18;;
11189;SDS011;5651;50.926;4.718;2023-03-20T16:05:35;19.45;;;9.13;;
11189;SDS011;5651;50.926;4.718;2023-03-20T16:08:11;18.42;;;8.27;;
11189;SDS011;5651;50.926;4.718;2023-03-20T16:11:13;15.80;;;6.38;;
11189;SDS011;5651;50.926;4.718;2023-03-20T16:13:42;23.52;;;7.65;;
11189;SDS011;5651;50.926;4.718;2023-03-20T16:16:12;16.35;;;8.63;;
11189;SDS011;5651;50.926;4.718;2023-03-20T16:18:40;22.48;;;8.68;;
11189;SDS011;5651;50.926;4.718;2023-03-20T16:21:08;20.08;;;9.27;;
11189;SDS011;5651;50.926;4.718;2023-03-20T16:23:56;16.63;;;8.05;;
11189;SDS011;5651;50.926;4.718;2023-03-20T16:26:24;24.55;;;9.00;;
11189;SDS011;5651;50.926;4.718;2023-03-20T16:28:55;23.48;;;8.25;;
11189;SDS011;5651;50.926;4.718;2023-03-20T16:31:25;18.27;;;8.65;;
11189;SDS011;5651;50.926;4.718;2023-03-20T16:33:56;21.13;;;9.57;;
11189;SDS011;5651;50.926;4.718;2023-03-20T16:36:28;19.42;;;9.40;;
11189;SDS011;5651;50.926;4.718;2023-03-20T16:38:57;23.17;;;8.82;;
11189;SDS011;5651;50.926;4.718;2023-03-20T16:41:32;20.05;;;8.98;;
11189;SDS011;5651;50.926;4.718;2023-03-20T16:43:58;16.35;;;9.48;;
11189;SDS011;5651;50.926;4.718;2023-03-20T16:46:29;22.85;;;9.70;;
11189;SDS011;5651;50.926;4.718;2023-03-20T16:48:56;18.85;;;9.55;;
11189;SDS011;5651;50.926;4.718;2023-03-20T16:51:36;20.02;;;9.85;;
11189;SDS011;5651;50.926;4.718;2023-03-20T16:54:02;20.98;;;9.50;;
11189;SDS011;5651;50.926;4.718;2023-03-20T16:56:32;17.15;;;8.93;;
11189;SDS011;5651;50.926;4.718;2023-03-20T16:59:06;24.42;;;10.90;;
11189;SDS011;5651;50.926;4.718;2023-03-20T17:01:33;22.95;;;9.65;;
11189;SDS011;5651;50.926;4.718;2023-03-20T17:04:13;24.45;;;9.48;;
11189;SDS011;5651;50.926;4.718;2023-03-20T17:06:54;21.70;;;9.82;;
11189;SDS011;5651;50.926;4.718;2023-03-20T17:09:27;18.48;;;9.32;;
11189;SDS011;5651;50.926;4.718;2023-03-20T17:14:26;27.05;;;9.43;;
11189;SDS011;5651;50.926;4.718;2023-03-20T17:16:52;23.30;;;8.95;;
11189;SDS011;5651;50.926;4.718;2023-03-20T17:19:20;15.57;;;8.30;;
11189;SDS011;5651;50.926;4.718;2023-03-20T17:21:46;20.38;;;8.23;;
11189;SDS011;5651;50.926;4.718;2023-03-20T17:24:13;18.10;;;8.68;;
11189;SDS011;5651;50.926;4.718;2023-03-20T17:26:40;21.20;;;8.05;;
11189;SDS011;5651;50.926;4.718;2023-03-20T17:29:09;18.38;;;8.63;;